Time;durP1;ratioP1;P1;durP2;ratioP2;P2;SDS_P1;SDS_P2;PMS_P1;PMS_P2;Temp;Humidity;BMP_temperature;BMP_pressure;BME280_temperature;BME280_humidity;BME280_pressure;Samples;Min_cycle;Max_cycle;Signal;HPM_P1;HPM_P2
2023/12/23 00:01:57;;;;;;;20.30;6.32;;;11.10;99.90;;;11.23;100.00;100875.59;4900490;29;20048;-69
2023/12/23 00:04:26;;;;;;;32.75;7.53;;;11.00;99.90;;;11.37;100.00;100878.16;4900132;29;20048;-69
2023/12/23 00:06:54;;;;;;;23.67;7.10;;;11.10;99.90;;;11.34;100.00;100889.63;4900912;29;20060;-71
2023/12/23 00:09:22;;;;;;;25.92;7.53;;;11.10;99.90;;;11.36;100.00;100871.13;4900537;29;20048;-70
2023/12/23 00:11:51;;;;;;;24.67;6.78;;;11.20;99.90;;;11.30;100.00;100890.56;4899060;29;20180;-70
2023/12/23 00:14:19;;;;;;;26.60;6.43;;;11.10;99.90;;;11.23;100.00;100866.78;4900616;29;20873;-69
2023/12/23 00:16:49;;;;;;;23.45;6.63;;;11.20;99.90;;;11.41;100.00;100891.38;4900193;29;20048;-69
2023/12/23 00:19:17;;;;;;;25.03;7.53;;;11.20;99.90;;;11.53;100.00;100885.09;4900281;29;20071;-69
2023/12/23 00:21:46;;;;;;;23.40;6.60;;;11.30;99.90;;;11.51;100.00;100895.72;4900083;29;20567;-69
2023/12/23 00:24:14;;;;;;;28.55;7.18;;;11.30;99.90;;;11.52;100.00;100884.22;4899727;29;20498;-69
2023/12/23 00:26:43;;;;;;;28.02;6.75;;;11.30;99.90;;;11.52;100.00;100873.63;4900349;29;20053;-69
2023/12/23 00:29:11;;;;;;;29.92;7.68;;;11.40;99.90;;;11.49;100.00;100867.47;4914302;29;20057;-70
2023/12/23 00:31:39;;;;;;;34.08;7.43;;;11.30;99.90;;;11.11;100.00;100783.03;4914410;29;20058;-69
2023/12/23 00:34:09;;;;;;;26.05;7.78;;;11.40;99.90;;;11.62;100.00;100854.09;4899860;29;20036;-69
2023/12/23 00:36:38;;;;;;;24.77;7.23;;;11.40;99.90;;;11.66;100.00;100861.16;4899978;29;20045;-69
2023/12/23 00:39:07;;;;;;;22.98;6.95;;;11.40;99.90;;;11.62;100.00;100853.22;4899550;29;20080;-71
2023/12/23 00:41:35;;;;;;;21.67;6.55;;;11.50;99.90;;;11.58;100.00;100852.38;4899674;29;20542;-69
2023/12/23 00:44:04;;;;;;;22.92;6.13;;;11.40;99.90;;;11.57;100.00;100845.34;4899739;29;20053;-69
2023/12/23 00:46:33;;;;;;;28.77;7.72;;;11.40;99.90;;;11.62;100.00;100834.69;4899672;29;20052;-69
2023/12/23 00:49:01;;;;;;;17.25;6.00;;;11.40;99.90;;;11.74;100.00;100827.53;4899552;29;20131;-69
2023/12/23 00:51:31;;;;;;;26.17;6.60;;;11.50;99.90;;;11.05;100.00;100718.69;4898070;29;20540;-69
2023/12/23 00:54:00;;;;;;;22.27;7.15;;;11.50;99.90;;;11.78;100.00;100829.28;4899507;29;20087;-69
2023/12/23 00:56:28;;;;;;;24.48;6.65;;;11.60;99.90;;;11.75;100.00;100833.69;4899446;29;20049;-70
2023/12/23 00:58:56;;;;;;;21.60;6.20;;;11.60;99.90;;;11.85;100.00;100837.13;4898344;29;20060;-69
2023/12/23 01:01:25;;;;;;;18.05;5.38;;;11.70;99.90;;;11.64;100.00;100807.28;4899453;29;20128;-70
2023/12/23 01:03:53;;;;;;;22.52;5.97;;;11.60;99.90;;;11.66;100.00;100826.72;4898064;29;20442;-69
2023/12/23 01:06:23;;;;;;;14.20;5.03;;;11.50;99.90;;;11.31;100.00;100822.59;4899280;29;20040;-69
2023/12/23 01:08:53;;;;;;;11.57;5.32;;;11.30;99.90;;;11.14;100.00;100824.50;4913692;29;20126;-70
2023/12/23 01:11:21;;;;;;;13.53;5.20;;;11.00;99.90;;;11.22;100.00;100833.25;4899199;29;20566;-70
2023/12/23 01:13:50;;;;;;;19.85;5.32;;;11.00;99.90;;;11.20;100.00;100824.44;4899213;29;20116;-71
2023/12/23 01:16:18;;;;;;;16.80;5.43;;;11.00;99.90;;;11.10;100.00;100815.69;4913399;29;20056;-70
2023/12/23 01:18:47;;;;;;;17.63;6.30;;;10.90;99.90;;;11.11;100.00;100822.75;4913671;29;20083;-70
2023/12/23 01:21:20;;;;;;;22.50;5.70;;;10.90;99.90;;;11.06;100.00;100808.66;4929289;29;20052;-70
2023/12/23 01:23:48;;;;;;;22.27;5.93;;;10.90;99.90;;;11.09;100.00;100821.88;4898868;29;20060;-68
2023/12/23 01:26:18;;;;;;;21.95;6.10;;;10.80;99.90;;;11.13;100.00;100814.81;4898783;29;20502;-68
2023/12/23 01:28:47;;;;;;;28.05;6.68;;;10.90;99.90;;;11.16;100.00;100810.38;4913588;29;20052;-68
2023/12/23 01:31:17;;;;;;;24.63;5.95;;;10.90;99.90;;;11.18;100.00;100802.41;4898785;29;20060;-68
2023/12/23 01:33:46;;;;;;;;;;;11.00;99.90;;;11.22;100.00;100799.72;4899394;29;20139;-69
2023/12/23 01:36:16;;;;;;;22.23;6.53;;;11.10;99.90;;;11.26;100.00;100798.81;4898582;29;20377;-68
2023/12/23 01:38:45;;;;;;;24.77;6.60;;;11.10;99.90;;;11.27;100.00;100800.56;4897569;29;20455;-68
2023/12/23 01:41:13;;;;;;;24.95;6.22;;;11.10;99.90;;;11.43;100.00;100802.19;4929172;29;20056;-68
2023/12/23 01:43:43;;;;;;;20.58;5.90;;;11.20;99.90;;;11.39;100.00;100779.28;4898649;29;20048;-69
2023/12/23 01:46:12;;;;;;;23.05;6.10;;;11.20;99.90;;;11.37;100.00;100788.13;4929193;29;20057;-70
2023/12/23 01:48:43;;;;;;;35.17;7.35;;;11.30;99.90;;;11.40;100.00;100804.00;4897321;29;20053;-68
2023/12/23 01:51:13;;;;;;;19.30;6.63;;;11.20;99.90;;;11.38;100.00;100801.34;4898824;29;20045;-68
2023/12/23 01:53:43;;;;;;;21.45;5.57;;;11.20;99.90;;;11.39;100.00;100811.06;4898970;29;20127;-68
2023/12/23 01:56:13;;;;;;;16.92;5.47;;;11.20;99.90;;;11.28;100.00;100814.69;4897327;29;20048;-68
2023/12/23 01:58:44;;;;;;;14.07;5.53;;;11.10;99.90;;;11.28;100.00;100802.34;4897313;29;20522;-68
2023/12/23 02:01:14;;;;;;;16.90;5.90;;;11.10;99.90;;;11.16;100.00;100813.00;4912057;29;20450;-68
2023/12/23 02:03:43;;;;;;;20.70;6.22;;;11.00;99.90;;;11.27;100.00;100807.63;4898329;29;20052;-68
2023/12/23 02:06:11;;;;;;;15.75;5.25;;;11.10;99.90;;;11.18;100.00;100758.28;4898178;29;20056;-68
2023/12/23 02:08:40;;;;;;;18.83;5.82;;;11.10;99.90;;;11.33;100.00;100787.28;4898344;29;20059;-70
2023/12/23 02:11:14;;;;;;;21.30;6.20;;;11.10;99.90;;;11.26;100.00;100768.81;4898316;29;20113;-69
2023/12/23 02:13:52;;;;;;;17.27;6.50;;;11.20;99.90;;;11.40;100.00;100788.09;4896006;29;20456;-68
2023/12/23 02:16:21;;;;;;;25.58;6.15;;;11.20;99.90;;;11.35;100.00;100780.19;4897970;29;20415;-68
2023/12/23 02:18:50;;;;;;;18.85;5.85;;;11.20;99.90;;;11.37;100.00;100772.22;4896599;29;20052;-68
2023/12/23 02:21:20;;;;;;;19.60;6.53;;;11.20;99.90;;;11.30;100.00;100776.72;4897772;29;20059;-68
2023/12/23 02:23:48;;;;;;;23.83;5.60;;;11.20;99.90;;;11.40;100.00;100772.22;4897682;29;20052;-68
2023/12/23 02:26:20;;;;;;;25.05;6.63;;;11.20;99.90;;;11.47;100.00;100769.50;4912004;29;20300;-68
2023/12/23 02:28:52;;;;;;;24.17;6.72;;;11.30;99.90;;;11.56;100.00;100766.75;4897909;29;20457;-68
2023/12/23 02:31:21;;;;;;;24.60;5.78;;;11.40;99.90;;;11.57;100.00;100746.44;4897956;29;20085;-68
2023/12/23 02:33:52;;;;;;;26.55;5.80;;;11.40;99.90;;;11.53;100.00;100758.84;4912108;29;20498;-69
2023/12/23 02:36:25;;;;;;;21.73;5.97;;;11.40;99.90;;;11.61;100.00;100738.41;4896243;29;20139;-69
2023/12/23 02:38:53;;;;;;;21.23;5.82;;;11.40;99.90;;;11.48;100.00;100726.19;4897380;29;20052;-69
2023/12/23 02:41:22;;;;;;;26.10;6.22;;;11.40;99.90;;;11.51;100.00;100728.84;4897612;29;20057;-69
2023/12/23 02:43:50;;;;;;;19.95;5.70;;;11.40;99.90;;;11.70;100.00;100753.38;4897208;29;20056;-69
2023/12/23 02:46:19;;;;;;;21.88;6.07;;;11.50;99.90;;;11.74;100.00;100757.75;4897471;29;20056;-69
2023/12/23 02:48:47;;;;;;;16.45;4.88;;;11.50;99.90;;;11.62;99.98;100763.16;4911720;29;20055;-69
2023/12/23 02:51:16;;;;;;;19.05;5.97;;;11.50;99.90;;;11.67;99.89;100745.47;4897204;29;20469;-69
2023/12/23 02:53:46;;;;;;;20.73;6.55;;;11.50;99.90;;;11.68;99.60;100753.41;4911901;29;20057;-69
2023/12/23 02:56:14;;;;;;;22.17;6.00;;;11.50;99.90;;;11.64;99.00;100737.50;4896026;29;20048;-69
2023/12/23 02:58:43;;;;;;;21.95;6.32;;;11.50;99.90;;;11.68;98.92;100734.84;4927477;29;20301;-68
2023/12/23 03:01:12;;;;;;;22.42;6.28;;;11.50;99.90;;;11.65;98.88;100724.28;4911455;29;20052;-69
2023/12/23 03:03:40;;;;;;;16.38;6.03;;;11.50;99.90;;;11.72;99.11;100733.06;4927462;29;20055;-69
2023/12/23 03:06:14;;;;;;;18.70;5.47;;;11.50;99.90;;;11.68;98.96;100731.31;4897304;29;20108;-70
2023/12/23 03:08:44;;;;;;;24.88;5.72;;;11.50;99.90;;;11.76;99.06;100740.06;4897442;29;20056;-69
2023/12/23 03:11:13;;;;;;;23.17;6.30;;;11.60;99.90;;;11.75;98.55;100733.00;4897126;29;20059;-69
2023/12/23 03:13:41;;;;;;;23.30;6.57;;;11.50;99.90;;;11.86;98.70;100751.44;4897103;29;20055;-69
2023/12/23 03:16:16;;;;;;;22.85;5.82;;;11.60;99.90;;;11.71;98.45;100732.16;4897540;29;20071;-69
2023/12/23 03:18:45;;;;;;;19.73;6.47;;;11.60;99.90;;;11.68;98.55;100747.22;4897255;29;20056;-69
2023/12/23 03:21:14;;;;;;;19.70;6.53;;;11.50;99.90;;;11.76;98.60;100748.91;4897159;29;20068;-68
2023/12/23 03:23:42;;;;;;;22.27;6.53;;;11.50;99.90;;;11.72;98.55;100736.59;4897205;29;20056;-69
2023/12/23 03:26:12;;;;;;;26.35;6.05;;;11.50;99.90;;;11.71;98.61;100729.50;4896956;29;20045;-71
2023/12/23 03:28:40;;;;;;;24.65;7.57;;;11.60;99.90;;;11.64;98.52;100727.81;4896812;29;20044;-69
2023/12/23 03:31:09;;;;;;;19.15;6.10;;;11.50;99.90;;;11.73;98.44;100733.03;4895166;29;20406;-69
2023/12/23 03:33:37;;;;;;;31.25;7.07;;;11.60;99.90;;;11.70;98.69;100727.78;4895537;29;20047;-69
2023/12/23 03:36:08;;;;;;;23.05;7.07;;;11.50;99.90;;;11.70;98.16;100719.81;4897047;29;20048;-69
2023/12/23 03:38:36;;;;;;;19.88;6.30;;;11.50;99.90;;;11.65;98.29;100734.00;4896915;29;20506;-70
2023/12/23 03:41:05;;;;;;;24.95;6.55;;;11.60;99.90;;;11.70;97.94;100725.13;4895665;29;20474;-69
2023/12/23 03:43:35;;;;;;;27.63;6.10;;;11.50;99.90;;;11.61;97.74;100695.19;4897019;29;20131;-69
2023/12/23 03:46:03;;;;;;;20.87;5.93;;;11.50;99.90;;;11.68;98.00;100721.63;4896915;29;20085;-69
2023/12/23 03:48:32;;;;;;;22.88;5.63;;;11.50;99.90;;;11.50;97.60;100718.22;4895693;29;20059;-68
2023/12/23 03:51:00;;;;;;;24.00;6.13;;;11.50;99.90;;;11.53;97.41;100695.28;4896923;29;20041;-68
2023/12/23 03:53:29;;;;;;;24.45;7.13;;;11.50;99.90;;;11.71;97.66;100716.25;4911560;29;20053;-69
2023/12/23 03:55:57;;;;;;;24.67;7.15;;;11.50;99.90;;;11.68;97.22;100708.38;4896652;29;20052;-69
2023/12/23 03:58:25;;;;;;;25.35;6.55;;;11.50;99.90;;;11.67;97.28;100708.41;4895348;29;20108;-69
2023/12/23 04:00:56;;;;;;;23.23;6.57;;;11.50;99.90;;;11.68;97.00;100718.97;4911384;29;20055;-69
2023/12/23 04:03:24;;;;;;;30.70;6.80;;;11.50;99.90;;;11.77;97.08;100710.91;4896723;29;20059;-69
2023/12/23 04:05:53;;;;;;;21.92;6.57;;;11.60;99.90;;;11.73;96.86;100711.81;4896610;29;20044;-69
2023/12/23 04:08:21;;;;;;;26.60;6.55;;;11.60;99.90;;;11.71;97.10;100699.50;4897091;29;20040;-69
2023/12/23 04:10:50;;;;;;;26.88;6.68;;;11.50;99.90;;;11.78;96.83;100695.88;4896982;29;20403;-68
2023/12/23 04:13:19;;;;;;;24.52;6.82;;;11.60;99.90;;;11.81;96.55;100698.47;4897003;29;20047;-68
2023/12/23 04:15:47;;;;;;;20.85;6.30;;;11.60;99.90;;;11.69;96.69;100688.91;4911397;29;20537;-68
2023/12/23 04:18:17;;;;;;;20.13;6.00;;;11.60;99.90;;;11.17;96.32;100589.75;4896867;29;20502;-68
2023/12/23 04:20:45;;;;;;;23.17;6.35;;;11.50;99.90;;;11.75;96.53;100690.59;4927444;29;20108;-69
2023/12/23 04:23:14;;;;;;;21.55;6.07;;;11.60;99.90;;;11.72;96.63;100690.66;4897144;29;20056;-69
2023/12/23 04:25:42;;;;;;;20.65;6.10;;;11.50;99.90;;;11.70;96.22;100663.31;4913938;29;20174;-69
2023/12/23 04:28:11;;;;;;;31.58;6.57;;;11.50;99.90;;;11.67;96.46;100672.16;4899044;29;20067;-69
2023/12/23 04:30:40;;;;;;;18.70;5.53;;;11.50;99.90;;;11.73;96.64;100668.53;4930508;29;20159;-69
2023/12/23 04:33:09;;;;;;;28.33;6.75;;;11.50;99.90;;;11.64;96.52;100688.06;4899989;29;20525;-69
2023/12/23 04:35:39;;;;;;;19.35;6.30;;;11.50;99.90;;;11.68;96.73;100683.63;4900193;29;20048;-69
2023/12/23 04:38:08;;;;;;;24.88;6.75;;;11.50;99.90;;;11.67;96.77;100687.19;4900538;29;20052;-69
2023/12/23 04:40:36;;;;;;;24.73;6.88;;;11.50;99.90;;;11.70;96.41;100661.53;4898664;29;20056;-69
2023/12/23 04:43:05;;;;;;;27.02;6.15;;;11.50;99.90;;;11.71;96.38;100668.56;4898634;29;20052;-69
2023/12/23 04:45:33;;;;;;;25.77;6.93;;;11.50;99.90;;;11.71;96.46;100665.91;4914138;29;20092;-69
2023/12/23 04:48:02;;;;;;;19.15;5.82;;;11.50;99.90;;;11.66;96.41;100659.81;4900004;29;20055;-69
2023/12/23 04:50:31;;;;;;;23.60;6.53;;;11.50;99.90;;;11.71;96.24;100670.38;4898422;29;20052;-69
2023/12/23 04:53:01;;;;;;;25.20;6.85;;;11.50;99.90;;;11.75;96.44;100682.66;4914216;29;20562;-69
2023/12/23 04:55:29;;;;;;;22.13;6.10;;;11.50;99.90;;;11.76;96.25;100666.75;4898509;29;20513;-69
2023/12/23 04:57:58;;;;;;;28.27;7.38;;;11.60;99.90;;;11.72;96.13;100685.34;4899606;29;20051;-69
2023/12/23 05:00:26;;;;;;;25.38;6.22;;;11.60;99.90;;;10.97;96.20;100562.63;4899375;29;20040;-69
2023/12/23 05:02:55;;;;;;;25.23;7.00;;;11.50;99.90;;;11.65;96.48;100689.84;4899455;29;20418;-69
2023/12/23 05:05:24;;;;;;;30.70;6.50;;;11.50;99.90;;;11.64;96.33;100684.53;4899250;29;20577;-70
2023/12/23 05:07:53;;;;;;;23.53;5.83;;;11.50;99.90;;;11.64;96.44;100685.41;4899272;29;20060;-71
2023/12/23 05:10:23;;;;;;;30.15;6.53;;;11.50;99.90;;;11.62;96.39;100683.66;4913787;29;20056;-68
2023/12/23 05:12:51;;;;;;;20.65;6.25;;;11.50;99.90;;;11.60;96.48;100667.81;4900032;29;20052;-69
2023/12/23 05:15:22;;;;;;;19.70;5.88;;;11.50;99.90;;;11.57;96.77;100665.22;4897863;29;20478;-69
2023/12/23 05:17:50;;;;;;;27.77;6.38;;;11.40;99.90;;;11.57;96.97;100667.84;4913791;29;20057;-69
2023/12/23 05:20:19;;;;;;;22.33;6.38;;;11.40;99.90;;;11.59;96.35;100646.63;4899317;29;20054;-69
2023/12/23 05:22:47;;;;;;;25.67;6.40;;;11.50;99.90;;;11.63;96.07;100664.25;4899262;29;20051;-69
2023/12/23 05:25:16;;;;;;;27.45;6.43;;;11.50;99.90;;;11.69;96.32;100661.56;4913428;29;20155;-69
2023/12/23 05:27:46;;;;;;;31.05;5.97;;;11.50;99.90;;;11.72;96.26;100664.16;4898702;29;20056;-69
2023/12/23 05:30:18;;;;;;;25.90;6.45;;;11.50;99.90;;;11.63;96.37;100667.75;4899322;29;20079;-71
2023/12/23 05:32:46;;;;;;;24.50;6.47;;;11.50;99.90;;;11.27;96.33;100606.41;4898801;29;20133;-70
2023/12/23 05:35:15;;;;;;;27.00;6.72;;;11.50;99.90;;;11.72;96.43;100691.53;4898624;29;20128;-69
2023/12/23 05:37:44;;;;;;;25.35;6.75;;;11.60;99.90;;;11.61;96.35;100658.09;4898693;29;20075;-69
2023/12/23 05:40:13;;;;;;;25.33;6.20;;;11.50;99.90;;;11.72;96.54;100650.91;4898572;29;20045;-69
2023/12/23 05:42:41;;;;;;;27.02;6.95;;;11.50;99.90;;;11.72;96.68;100654.44;4898519;29;20049;-70
2023/12/23 05:45:11;;;;;;;23.98;6.57;;;11.50;99.90;;;11.68;96.55;100662.44;4898678;29;20080;-69
2023/12/23 05:47:40;;;;;;;24.30;6.80;;;11.50;99.90;;;11.75;96.67;100669.41;4898679;29;20045;-69
2023/12/23 05:50:10;;;;;;;29.45;6.60;;;11.50;99.90;;;11.65;96.56;100654.50;4898450;29;20112;-69
2023/12/23 05:52:38;;;;;;;20.92;5.95;;;11.50;99.90;;;11.36;96.16;100596.56;4898574;29;20048;-69
2023/12/23 05:55:08;;;;;;;27.10;6.38;;;11.50;99.90;;;11.73;96.60;100664.13;4898449;29;20132;-69
2023/12/23 05:57:37;;;;;;;22.23;6.78;;;11.50;99.90;;;11.73;96.50;100653.53;4898585;29;20076;-70
2023/12/23 06:00:07;;;;;;;31.40;7.20;;;11.50;99.90;;;11.82;96.11;100652.56;4898190;29;20044;-69
2023/12/23 06:02:41;;;;;;;24.33;6.63;;;11.60;99.90;;;11.63;96.50;100627.16;4898253;29;20076;-69
2023/12/23 06:05:09;;;;;;;29.80;6.63;;;11.60;99.90;;;11.71;96.76;100657.13;4898178;29;20049;-70
2023/12/23 06:07:38;;;;;;;27.13;6.93;;;11.50;99.90;;;11.42;96.73;100633.56;4898147;29;20104;-69
2023/12/23 06:10:08;;;;;;;24.75;6.85;;;11.50;99.90;;;11.62;97.06;100647.47;4928698;29;20140;-69
2023/12/23 06:12:37;;;;;;;29.70;7.13;;;11.50;99.90;;;11.72;97.09;100649.16;4928582;29;20074;-69
2023/12/23 06:15:06;;;;;;;25.13;6.70;;;11.50;99.90;;;11.77;96.77;100659.66;4898110;29;20053;-69
2023/12/23 06:17:35;;;;;;;21.97;6.17;;;11.60;99.90;;;11.56;96.79;100607.81;4897922;29;20052;-71
2023/12/23 06:20:06;;;;;;;28.08;7.82;;;11.60;99.90;;;11.77;96.60;100662.31;4897893;29;20048;-71
2023/12/23 06:22:35;;;;;;;17.30;5.60;;;11.60;99.90;;;11.66;97.07;100665.13;4897981;29;20060;-70
2023/12/23 06:25:04;;;;;;;24.90;7.20;;;11.50;99.90;;;11.73;96.71;100665.91;4897853;29;20036;-70
2023/12/23 06:27:32;;;;;;;21.38;6.22;;;11.50;99.90;;;11.64;96.99;100663.34;4898021;29;20486;-69
2023/12/23 06:30:00;;;;;;;21.42;6.85;;;11.40;99.90;;;11.64;97.24;100660.69;4897928;29;20503;-69
2023/12/23 06:32:29;;;;;;;20.63;6.60;;;11.50;99.90;;;11.12;97.60;100572.16;4897649;29;20053;-69
2023/12/23 06:34:57;;;;;;;29.17;6.80;;;11.40;99.90;;;11.60;97.57;100643.06;4897607;29;20053;-71
2023/12/23 06:37:27;;;;;;;24.00;6.55;;;11.40;99.90;;;11.68;97.47;100662.44;4896613;29;20092;-69
2023/12/23 06:39:56;;;;;;;23.08;6.53;;;11.50;99.90;;;11.61;97.25;100634.25;4897822;29;20082;-70
2023/12/23 06:42:24;;;;;;;30.20;6.35;;;11.50;99.90;;;11.62;97.11;100620.97;4897768;29;20437;-69
2023/12/23 06:44:52;;;;;;;26.90;7.03;;;11.60;99.90;;;11.75;96.96;100645.56;4897646;29;20053;-70
2023/12/23 06:47:21;;;;;;;25.50;6.80;;;11.60;99.90;;;11.73;96.63;100640.28;4895923;29;20048;-70
2023/12/23 06:49:49;;;;;;;30.50;7.10;;;11.60;99.90;;;11.78;96.82;100646.44;4897675;29;20136;-69
2023/12/23 06:52:18;;;;;;;27.63;6.75;;;11.60;99.90;;;11.75;96.64;100633.19;4896233;29;20383;-69
2023/12/23 06:54:48;;;;;;;26.02;6.25;;;11.60;99.90;;;11.69;96.79;100617.38;4897444;29;20065;-70
2023/12/23 06:57:16;;;;;;;27.77;6.88;;;11.60;99.90;;;11.72;96.65;100625.31;4897350;29;20075;-70
2023/12/23 06:59:46;;;;;;;25.30;6.65;;;11.60;99.90;;;11.54;96.74;100600.75;4912015;29;20045;-69
2023/12/23 07:02:15;;;;;;;20.58;6.50;;;11.50;99.90;;;11.76;96.13;100628.78;4897584;29;20048;-69
2023/12/23 07:04:44;;;;;;;26.17;7.00;;;11.60;99.90;;;11.76;95.87;100626.13;4897266;29;20048;-69
2023/12/23 07:07:12;;;;;;;28.88;6.25;;;11.60;99.90;;;11.82;95.54;100617.22;4897310;29;20072;-70
2023/12/23 07:09:40;;;;;;;24.23;6.40;;;11.70;99.90;;;11.78;95.59;100643.78;4897272;29;20068;-69
2023/12/23 07:12:10;;;;;;;24.20;6.75;;;11.60;99.90;;;11.78;95.52;100627.00;4897319;29;20076;-70
2023/12/23 07:14:39;;;;;;;20.50;6.18;;;11.60;99.90;;;11.66;95.11;100651.88;4897071;29;20044;-69
2023/12/23 07:17:08;;;;;;;23.92;6.70;;;11.50;99.90;;;11.84;94.79;100647.22;4897161;29;20476;-70
2023/12/23 07:19:36;;;;;;;17.95;5.70;;;11.60;99.90;;;11.85;94.31;100644.56;4897217;29;20561;-69
2023/12/23 07:22:06;;;;;;;22.02;6.15;;;11.70;99.90;;;11.85;94.03;100635.72;4897257;29;20070;-69
2023/12/23 07:24:34;;;;;;;21.98;5.93;;;11.70;99.90;;;11.94;93.95;100627.66;4911660;29;20297;-69
2023/12/23 07:27:04;;;;;;;22.23;5.97;;;11.80;99.90;;;11.90;94.05;100636.56;4897516;29;20078;-69
2023/12/23 07:29:34;;;;;;;21.65;6.53;;;11.70;99.90;;;11.96;94.13;100647.06;4897355;29;20048;-70
2023/12/23 07:32:02;;;;;;;20.43;5.97;;;11.80;99.90;;;11.98;94.17;100651.44;4897283;29;20044;-70
2023/12/23 07:34:30;;;;;;;17.20;5.90;;;11.80;99.90;;;11.23;93.84;100509.38;4911762;29;20056;-69
2023/12/23 07:36:59;;;;;;;23.65;6.30;;;11.70;99.90;;;11.93;94.10;100650.63;4897326;29;20048;-69
2023/12/23 07:39:27;;;;;;;22.73;6.78;;;11.80;99.90;;;11.92;94.19;100629.44;4897212;29;20041;-69
2023/12/23 07:41:57;;;;;;;25.58;6.18;;;11.80;99.90;;;11.95;94.12;100632.06;4896036;29;20057;-69
2023/12/23 07:44:25;;;;;;;28.38;6.10;;;11.80;99.90;;;11.98;94.43;100639.97;4897254;29;20060;-69
2023/12/23 07:46:55;;;;;;;23.30;6.50;;;11.80;99.90;;;12.01;94.49;100635.50;4897025;29;20055;-69
2023/12/23 07:49:24;;;;;;;26.40;6.90;;;11.80;99.90;;;12.02;94.62;100652.28;4897035;29;20053;-69
2023/12/23 07:51:52;;;;;;;24.10;6.40;;;11.80;99.90;;;11.91;94.65;100643.59;4897042;29;20049;-69
2023/12/23 07:54:20;;;;;;;24.40;6.55;;;11.70;99.90;;;12.02;94.77;100650.50;4897528;29;20037;-70
2023/12/23 07:56:49;;;;;;;29.33;6.10;;;11.80;99.90;;;11.92;95.02;100646.25;4911627;29;20056;-69
2023/12/23 07:59:18;;;;;;;20.88;6.38;;;11.70;99.90;;;11.88;95.04;100646.28;4897185;29;20096;-69
2023/12/23 08:01:47;;;;;;;23.92;6.22;;;11.70;99.90;;;11.91;95.25;100670.09;4900683;29;20044;-69
2023/12/23 08:04:17;;;;;;;19.45;6.10;;;11.70;99.90;;;11.85;95.40;100659.56;4900482;29;20131;-70
2023/12/23 08:06:45;;;;;;;22.02;6.03;;;11.70;99.90;;;11.85;95.87;100670.16;4900474;29;20048;-70
2023/12/23 08:09:14;;;;;;;24.60;6.18;;;11.70;99.90;;;11.92;95.84;100674.50;4900362;29;20055;-69
2023/12/23 08:11:42;;;;;;;17.70;5.93;;;11.70;99.90;;;11.85;97.39;100671.06;4914792;29;20454;-69
2023/12/23 08:14:11;;;;;;;22.05;5.75;;;11.70;99.90;;;11.85;99.04;100664.88;4900743;29;20116;-69
2023/12/23 08:16:39;;;;;;;22.38;6.20;;;11.70;99.90;;;11.75;99.82;100659.69;4900215;29;20056;-69
2023/12/23 08:19:08;;;;;;;22.00;5.93;;;11.60;99.90;;;11.72;100.00;100665.03;4900180;29;20048;-70
2023/12/23 08:21:38;;;;;;;25.85;7.47;;;11.50;99.90;;;11.75;99.92;100682.66;4900052;29;20060;-70
2023/12/23 08:24:06;;;;;;;22.23;6.77;;;11.60;99.90;;;11.71;100.00;100668.56;4900117;29;20052;-69
2023/12/23 08:26:35;;;;;;;31.30;7.25;;;11.50;99.90;;;11.71;99.72;100665.91;4930637;29;20300;-71
2023/12/23 08:29:04;;;;;;;22.70;6.20;;;11.60;99.90;;;11.82;99.44;100664.91;4899833;29;20045;-69
2023/12/23 08:31:32;;;;;;;18.30;5.78;;;11.60;99.90;;;11.71;99.20;100625.34;4899751;29;20096;-70
2023/12/23 08:34:00;;;;;;;21.73;6.30;;;11.60;99.90;;;11.77;99.08;100660.56;4914712;29;20493;-69
2023/12/23 08:36:29;;;;;;;23.52;6.28;;;11.60;99.90;;;11.74;98.39;100659.72;4899736;29;20115;-70
2023/12/23 08:38:59;;;;;;;25.88;6.70;;;11.60;99.90;;;11.85;98.42;100660.44;4899739;29;20057;-70
2023/12/23 08:41:27;;;;;;;24.80;5.83;;;11.60;99.90;;;11.95;97.98;100671.81;4914149;29;20060;-70
2023/12/23 08:43:56;;;;;;;22.75;5.95;;;11.70;99.90;;;11.92;97.60;100669.22;4900041;29;20056;-69
2023/12/23 08:46:24;;;;;;;24.35;5.22;;;11.70;99.90;;;11.92;97.43;100661.25;4899748;29;20052;-69
2023/12/23 08:48:53;;;;;;;21.65;5.60;;;11.80;99.90;;;11.95;96.94;100674.47;4899553;29;20052;-69
2023/12/23 08:51:21;;;;;;;27.05;6.20;;;11.80;99.90;;;11.95;96.59;100683.28;4899519;29;20056;-68
2023/12/23 08:53:50;;;;;;;20.08;6.15;;;11.80;99.90;;;11.83;96.44;100656.09;4899558;29;20494;-68
2023/12/23 08:56:19;;;;;;;24.80;6.15;;;11.80;99.90;;;11.88;96.83;100680.75;4899881;29;20163;-68
2023/12/23 08:58:48;;;;;;;23.75;6.50;;;11.70;99.90;;;11.87;97.04;100685.16;4900086;29;20057;-68
2023/12/23 09:01:17;;;;;;;21.38;6.15;;;11.70;99.90;;;11.99;96.89;100697.38;4899755;29;20059;-68
2023/12/23 09:03:45;;;;;;;30.23;6.55;;;11.80;99.90;;;11.93;97.16;100685.09;4899311;29;20513;-68
2023/12/23 09:06:14;;;;;;;24.35;6.55;;;11.70;99.90;;;11.93;97.15;100685.09;4899334;29;20048;-68
2023/12/23 09:08:43;;;;;;;27.50;6.85;;;11.80;99.90;;;11.87;97.43;100687.81;4899175;29;20052;-69
2023/12/23 09:11:12;;;;;;;26.10;6.07;;;11.70;99.90;;;11.87;97.27;100690.47;4898645;29;20124;-68
2023/12/23 09:13:42;;;;;;;23.52;6.55;;;11.70;99.90;;;11.94;97.34;100701.88;4899204;29;20048;-68
2023/12/23 09:16:10;;;;;;;27.37;6.10;;;11.70;99.90;;;11.91;97.43;100704.53;4899017;29;20096;-69
2023/12/23 09:18:39;;;;;;;27.80;6.35;;;11.70;99.90;;;11.97;97.63;100701.81;4899188;29;20470;-68
2023/12/23 09:21:07;;;;;;;26.08;6.57;;;11.70;99.90;;;11.92;97.46;100709.84;4898959;29;20412;-69
2023/12/23 09:23:35;;;;;;;26.85;6.88;;;11.70;99.90;;;12.03;97.24;100707.03;4897796;29;20052;-69
2023/12/23 09:26:04;;;;;;;32.33;7.45;;;11.80;99.90;;;12.07;97.07;100716.72;4897861;29;20064;-68
2023/12/23 09:28:33;;;;;;;21.60;6.03;;;11.80;99.90;;;11.83;96.94;100702.00;4898718;29;20071;-68
2023/12/23 09:31:03;;;;;;;20.50;6.13;;;11.80;99.90;;;12.01;96.43;100722.09;4897834;29;20100;-68
2023/12/23 09:33:32;;;;;;;23.75;6.90;;;11.80;99.90;;;11.93;96.04;100721.31;4898817;29;20057;-69
2023/12/23 09:36:00;;;;;;;22.00;5.78;;;11.80;99.90;;;11.98;95.80;100708.91;4898680;29;20494;-68
2023/12/23 09:38:28;;;;;;;25.67;7.03;;;11.80;99.90;;;12.00;95.85;100718.56;4898541;29;20088;-68
2023/12/23 09:40:57;;;;;;;29.08;7.20;;;11.80;99.90;;;12.02;96.01;100706.16;4898495;29;20135;-70
2023/12/23 09:43:26;;;;;;;28.83;6.70;;;11.80;99.90;;;12.01;95.64;100719.44;4898582;29;20104;-68
2023/12/23 09:45:57;;;;;;;24.63;6.13;;;11.80;99.90;;;12.00;95.62;100726.50;4898448;29;20116;-68
2023/12/23 09:48:27;;;;;;;25.95;6.97;;;11.80;99.90;;;12.00;95.40;100718.56;4897239;29;20454;-68
2023/12/23 09:50:56;;;;;;;20.85;7.00;;;11.90;99.90;;;12.06;95.50;100728.25;4897278;29;20164;-68
2023/12/23 09:53:28;;;;;;;23.05;5.80;;;11.90;99.90;;;11.95;95.30;100716.88;4898591;29;20040;-68
2023/12/23 09:55:57;;;;;;;20.70;6.28;;;11.80;99.90;;;12.04;94.99;100753.88;4898234;29;20051;-68
2023/12/23 09:58:26;;;;;;;21.00;6.00;;;11.80;99.90;;;11.97;94.91;100729.22;4898192;29;20384;-68
2023/12/23 10:00:54;;;;;;;15.70;6.10;;;11.80;99.90;;;12.08;94.38;100739.69;4898341;29;20047;-68
2023/12/23 10:03:23;;;;;;;27.30;5.93;;;11.90;99.90;;;12.03;94.37;100741.50;4898111;29;20052;-68
2023/12/23 10:05:54;;;;;;;19.45;6.00;;;11.80;99.90;;;12.09;94.19;100726.41;4898516;29;20073;-68
2023/12/23 10:08:23;;;;;;;20.20;5.82;;;11.90;99.90;;;12.17;93.84;100742.22;4898062;29;20513;-68
2023/12/23 10:10:52;;;;;;;18.08;5.45;;;11.90;99.90;;;12.14;93.85;100731.63;4898094;29;20491;-68
2023/12/23 10:13:21;;;;;;;18.25;5.50;;;12.00;99.90;;;12.14;93.25;100719.25;4897870;29;20044;-68